Time;durP1;ratioP1;P1;durP2;ratioP2;P2;SDS_P1;SDS_P2;PMS_P1;PMS_P2;Temp;Humidity;BMP_temperature;BMP_pressure;BME280_temperature;BME280_humidity;BME280_pressure;Samples;Min_cycle;Max_cycle;Signal;HPM_P1;HPM_P2
2023/08/13 00:01:02;;;;;;;6.10;3.10;;;;;;;;;;5082446;28;20463;-62
2023/08/13 00:03:28;;;;;;;5.35;3.30;;;;;;;;;;5088628;28;20044;-61
2023/08/13 00:05:55;;;;;;;5.93;3.53;;;;;;;;;;5088578;28;20133;-64
2023/08/13 00:08:21;;;;;;;3.55;2.88;;;;;;;;;;5087929;28;20521;-63
2023/08/13 00:10:48;;;;;;;4.63;3.00;;;;;;;;;;5088864;28;20052;-62
2023/08/13 00:13:14;;;;;;;5.18;3.38;;;;;;;;;;5088011;28;20048;-62
2023/08/13 00:15:41;;;;;;;4.70;3.60;;;;;;;;;;5088418;28;20579;-62
2023/08/13 00:18:08;;;;;;;4.03;3.33;;;;;;;;;;5087942;28;20131;-62
2023/08/13 00:20:34;;;;;;;5.45;3.33;;;;;;;;;;5088479;28;20135;-59
2023/08/13 00:23:01;;;;;;;4.13;3.17;;;;;;;;;;5088516;28;20059;-63
2023/08/13 00:25:27;;;;;;;9.25;3.47;;;;;;;;;;5087498;28;20454;-60
2023/08/13 00:27:54;;;;;;;4.70;3.80;;;;;;;;;;5088656;28;20040;-59
2023/08/13 00:30:20;;;;;;;7.35;3.30;;;;;;;;;;5088521;28;20454;-63
2023/08/13 00:32:47;;;;;;;4.57;3.22;;;;;;;;;;5088238;28;20083;-60
2023/08/13 00:35:13;;;;;;;6.30;3.65;;;;;;;;;;5088398;28;20101;-61
2023/08/13 00:37:40;;;;;;;4.10;3.22;;;;;;;;;;5088438;28;20087;-63
2023/08/13 00:40:07;;;;;;;6.72;4.10;;;;;;;;;;5088384;28;20079;-66
2023/08/13 00:42:33;;;;;;;5.97;3.30;;;;;;;;;;5088460;28;20044;-64
2023/08/13 00:44:59;;;;;;;6.68;3.90;;;;;;;;;;5088206;28;20048;-63
2023/08/13 00:47:26;;;;;;;5.97;3.22;;;;;;;;;;5088163;28;20131;-64
2023/08/13 00:49:53;;;;;;;7.97;3.78;;;;;;;;;;5088203;28;20048;-60
2023/08/13 00:52:19;;;;;;;5.65;4.10;;;;;;;;;;5088387;28;20044;-63
2023/08/13 00:54:47;;;;;;;6.57;3.47;;;;;;;;;;5090683;28;20052;-62
2023/08/13 00:57:13;;;;;;;4.90;3.70;;;;;;;;;;5092037;28;20491;-60
2023/08/13 00:59:40;;;;;;;5.63;3.92;;;;;;;;;;5092332;28;20048;-64
2023/08/13 01:02:07;;;;;;;4.65;3.55;;;;;;;;;;5092185;28;20037;-61
2023/08/13 01:04:33;;;;;;;5.57;3.67;;;;;;;;;;5092654;28;20049;-62
2023/08/13 01:07:20;;;;;;;3.90;3.03;;;;;;;;;;5091747;28;20040;-62
2023/08/13 01:10:00;;;;;;;5.80;3.85;;;;;;;;;;5092393;28;20126;-61
2023/08/13 01:12:52;;;;;;;7.20;3.88;;;;;;;;;;5091813;28;20074;-63
2023/08/13 01:15:28;;;;;;;4.53;3.53;;;;;;;;;;5092197;28;20135;-62
2023/08/13 01:17:55;;;;;;;4.13;3.60;;;;;;;;;;5091729;28;20051;-61
2023/08/13 01:20:28;;;;;;;4.85;3.30;;;;;;;;;;5091893;28;20055;-64
2023/08/13 01:22:55;;;;;;;6.03;3.50;;;;;;;;;;5090367;28;20044;-60
2023/08/13 01:25:23;;;;;;;6.57;4.13;;;;;;;;;;5090587;28;20052;-61
2023/08/13 01:28:08;;;;;;;7.38;3.75;;;;;;;;;;5090463;28;20496;-65
2023/08/13 01:30:39;;;;;;;5.60;3.20;;;;;;;;;;5091468;28;20040;-61
2023/08/13 01:33:07;;;;;;;5.15;2.88;;;;;;;;;;5090207;28;20109;-60
2023/08/13 01:35:34;;;;;;;3.90;3.33;;;;;;;;;;5090217;28;20094;-61
2023/08/13 01:38:01;;;;;;;4.05;3.40;;;;;;;;;;5091431;28;20127;-61
2023/08/13 01:40:28;;;;;;;5.72;3.53;;;;;;;;;;5090816;28;20551;-61
2023/08/13 01:42:55;;;;;;;4.35;3.50;;;;;;;;;;5090914;28;20423;-62
2023/08/13 01:45:21;;;;;;;5.13;3.40;;;;;;;;;;5091217;28;20051;-59
2023/08/13 01:47:48;;;;;;;5.53;3.30;;;;;;;;;;5091171;28;20135;-62
2023/08/13 01:50:15;;;;;;;4.13;3.20;;;;;;;;;;5090495;28;20052;-63
2023/08/13 01:52:41;;;;;;;6.32;3.78;;;;;;;;;;5090990;28;20101;-60
2023/08/13 01:55:08;;;;;;;5.28;3.88;;;;;;;;;;5091281;28;20753;-61
2023/08/13 01:57:34;;;;;;;4.80;3.13;;;;;;;;;;5090041;28;20071;-61
2023/08/13 02:00:01;;;;;;;6.57;3.80;;;;;;;;;;5091058;28;20044;-62
2023/08/13 02:02:27;;;;;;;3.90;3.28;;;;;;;;;;5090644;28;20044;-60
2023/08/13 02:04:54;;;;;;;6.25;3.90;;;;;;;;;;5090386;28;20467;-62
2023/08/13 02:07:20;;;;;;;4.63;3.85;;;;;;;;;;5091029;28;20052;-62
2023/08/13 02:09:47;;;;;;;6.15;4.28;;;;;;;;;;5090208;28;20514;-65
2023/08/13 02:12:13;;;;;;;5.25;4.38;;;;;;;;;;5090545;28;20085;-61
2023/08/13 02:14:40;;;;;;;6.20;4.03;;;;;;;;;;5089695;28;20128;-61
2023/08/13 02:17:12;;;;;;;5.18;3.80;;;;;;;;;;5089541;28;20048;-62
2023/08/13 02:19:40;;;;;;;6.75;3.95;;;;;;;;;;5079372;28;20075;-64
2023/08/13 02:22:07;;;;;;;4.82;4.00;;;;;;;;;;5090187;28;20052;-62
2023/08/13 02:24:33;;;;;;;5.53;4.07;;;;;;;;;;5090472;28;20131;-65
2023/08/13 02:26:59;;;;;;;4.57;3.80;;;;;;;;;;5088717;28;20036;-62
2023/08/13 02:29:26;;;;;;;5.70;3.50;;;;;;;;;;5090346;28;20112;-62
2023/08/13 02:31:52;;;;;;;9.50;5.03;;;;;;;;;;5089894;28;20140;-62
2023/08/13 02:34:19;;;;;;;6.95;4.75;;;;;;;;;;5089254;28;20198;-63
2023/08/13 02:36:45;;;;;;;5.85;3.63;;;;;;;;;;5090797;28;20156;-63
2023/08/13 02:39:12;;;;;;;6.40;4.13;;;;;;;;;;5090140;28;20055;-63
2023/08/13 02:41:38;;;;;;;5.00;4.00;;;;;;;;;;5090064;28;20121;-63
2023/08/13 02:44:04;;;;;;;8.90;4.65;;;;;;;;;;5089752;28;20079;-62
2023/08/13 02:46:31;;;;;;;10.60;5.60;;;;;;;;;;5089540;28;20071;-61
2023/08/13 02:48:57;;;;;;;8.65;5.05;;;;;;;;;;5088761;28;20051;-64
2023/08/13 02:51:24;;;;;;;6.22;4.70;;;;;;;;;;5090116;28;20044;-63
2023/08/13 02:53:50;;;;;;;9.27;4.25;;;;;;;;;;5089864;28;20135;-61
2023/08/13 02:56:18;;;;;;;6.15;4.70;;;;;;;;;;5090107;28;20052;-63
2023/08/13 02:58:44;;;;;;;9.00;4.15;;;;;;;;;;5089381;28;20131;-61
2023/08/13 03:01:11;;;;;;;9.90;5.05;;;;;;;;;;5089288;28;20040;-61
2023/08/13 03:03:38;;;;;;;6.63;4.82;;;;;;;;;;5088890;28;20134;-64
2023/08/13 03:06:20;;;;;;;5.60;3.95;;;;;;;;;;5089503;28;20048;-61
2023/08/13 03:08:47;;;;;;;7.28;4.45;;;;;;;;;;5089697;28;20116;-62
2023/08/13 03:11:13;;;;;;;8.10;5.25;;;;;;;;;;5088854;28;20105;-62
2023/08/13 03:13:40;;;;;;;6.97;4.60;;;;;;;;;;5089135;28;20512;-63
2023/08/13 03:16:06;;;;;;;6.60;5.03;;;;;;;;;;5087764;28;20121;-62
2023/08/13 03:18:33;;;;;;;9.27;5.07;;;;;;;;;;5089605;28;20131;-63
2023/08/13 03:20:59;;;;;;;8.85;5.28;;;;;;;;;;5089116;28;20124;-61
2023/08/13 03:23:26;;;;;;;8.00;4.70;;;;;;;;;;5088917;28;20123;-62
2023/08/13 03:25:52;;;;;;;8.05;5.25;;;;;;;;;;5089164;28;20476;-65
2023/08/13 03:28:18;;;;;;;6.75;5.30;;;;;;;;;;5089208;28;20048;-64
2023/08/13 03:30:45;;;;;;;6.55;5.10;;;;;;;;;;5088957;28;20048;-61
2023/08/13 03:33:11;;;;;;;6.88;4.80;;;;;;;;;;5089126;28;20487;-64
2023/08/13 03:35:38;;;;;;;8.88;5.20;;;;;;;;;;5089505;28;20074;-64
2023/08/13 03:38:04;;;;;;;9.25;6.28;;;;;;;;;;5089114;28;20128;-63
2023/08/13 03:40:31;;;;;;;8.30;5.20;;;;;;;;;;5089257;28;20070;-61
2023/08/13 03:42:57;;;;;;;13.13;5.13;;;;;;;;;;5088337;28;20563;-62
2023/08/13 03:45:25;;;;;;;10.85;5.15;;;;;;;;;;5089236;28;20052;-61
2023/08/13 03:47:51;;;;;;;13.18;5.55;;;;;;;;;;5088862;28;20097;-63
2023/08/13 03:50:18;;;;;;;10.98;4.78;;;;;;;;;;5092607;28;20051;-61
2023/08/13 03:52:45;;;;;;;9.13;5.00;;;;;;;;;;5088286;28;20044;-64
2023/08/13 03:55:11;;;;;;;8.15;4.57;;;;;;;;;;5088311;28;20066;-65
2023/08/13 03:57:37;;;;;;;9.20;5.47;;;;;;;;;;5088570;28;20119;-62
2023/08/13 04:00:05;;;;;;;8.50;5.85;;;;;;;;;;5087337;28;20046;-62
2023/08/13 04:02:38;;;;;;;9.20;4.95;;;;;;;;;;5087942;28;20487;-63
2023/08/13 04:05:05;;;;;;;10.38;5.30;;;;;;;;;;5088605;28;20043;-62
2023/08/13 04:07:32;;;;;;;6.28;4.72;;;;;;;;;;5088740;28;20507;-63
2023/08/13 04:09:58;;;;;;;11.60;5.45;;;;;;;;;;5088930;28;20148;-63
2023/08/13 04:12:25;;;;;;;10.27;5.50;;;;;;;;;;5088599;28;20127;-61
2023/08/13 04:14:51;;;;;;;10.88;5.10;;;;;;;;;;5088435;28;20047;-65
2023/08/13 04:17:18;;;;;;;7.45;5.00;;;;;;;;;;5087402;28;20132;-63
2023/08/13 04:19:44;;;;;;;7.45;4.95;;;;;;;;;;5088487;28;20055;-62
2023/08/13 04:22:11;;;;;;;9.13;4.68;;;;;;;;;;5087144;28;20112;-64
2023/08/13 04:24:38;;;;;;;8.07;4.65;;;;;;;;;;5087151;28;20127;-62
2023/08/13 04:27:04;;;;;;;8.15;4.93;;;;;;;;;;5088143;28;20050;-65
2023/08/13 04:29:31;;;;;;;7.03;4.28;;;;;;;;;;5088266;28;20044;-64
2023/08/13 04:31:58;;;;;;;8.23;4.90;;;;;;;;;;5088327;28;20119;-63
2023/08/13 04:34:24;;;;;;;7.60;4.82;;;;;;;;;;5088328;28;20492;-63
2023/08/13 04:36:50;;;;;;;7.15;4.50;;;;;;;;;;5087431;28;20715;-63
2023/08/13 04:39:17;;;;;;;7.35;5.43;;;;;;;;;;5087987;28;20087;-61
2023/08/13 04:41:43;;;;;;;6.75;5.10;;;;;;;;;;5087772;28;20075;-65
2023/08/13 04:44:10;;;;;;;7.82;5.13;;;;;;;;;;5088431;28;20516;-61
2023/08/13 04:46:36;;;;;;;8.60;4.70;;;;;;;;;;5088508;28;20128;-63
2023/08/13 04:49:03;;;;;;;6.25;4.28;;;;;;;;;;5088129;28;20044;-62
2023/08/13 04:51:30;;;;;;;10.45;4.57;;;;;;;;;;5088340;28;20101;-63
2023/08/13 04:53:56;;;;;;;8.45;5.40;;;;;;;;;;5088094;28;20089;-63
2023/08/13 04:56:22;;;;;;;8.77;4.93;;;;;;;;;;5087984;28;20127;-61
2023/08/13 04:58:49;;;;;;;9.55;5.00;;;;;;;;;;5087995;28;20067;-63
2023/08/13 05:01:15;;;;;;;9.82;5.50;;;;;;;;;;5087455;28;20454;-61
2023/08/13 05:03:42;;;;;;;9.40;4.63;;;;;;;;;;5086993;28;20051;-63
2023/08/13 05:06:08;;;;;;;8.50;4.38;;;;;;;;;;5087236;28;20711;-63
2023/08/13 05:08:35;;;;;;;6.95;4.57;;;;;;;;;;5087848;28;20492;-61
2023/08/13 05:11:01;;;;;;;11.68;5.90;;;;;;;;;;5086411;28;20148;-62
2023/08/13 05:13:28;;;;;;;6.30;4.43;;;;;;;;;;5087372;28;20040;-62
2023/08/13 05:15:54;;;;;;;9.07;4.40;;;;;;;;;;5079240;28;20171;-69
2023/08/13 05:18:21;;;;;;;5.10;3.90;;;;;;;;;;5077384;28;20058;-65
2023/08/13 05:20:49;;;;;;;5.15;3.75;;;;;;;;;;5084831;28;20079;-61
2023/08/13 05:23:16;;;;;;;5.80;4.03;;;;;;;;;;5081896;28;20127;-62
2023/08/13 05:25:42;;;;;;;9.23;3.53;;;;;;;;;;5084994;28;20060;-62
2023/08/13 05:28:09;;;;;;;4.28;3.17;;;;;;;;;;5082124;28;20377;-62
2023/08/13 05:30:36;;;;;;;4.22;3.03;;;;;;;;;;5091967;28;20075;-62
2023/08/13 05:33:03;;;;;;;7.47;4.05;;;;;;;;;;5078862;28;20460;-61
2023/08/13 05:35:29;;;;;;;9.30;3.00;;;;;;;;;;5085280;28;20093;-61
2023/08/13 05:37:56;;;;;;;5.47;2.90;;;;;;;;;;5086771;28;20059;-62
2023/08/13 05:40:22;;;;;;;5.60;2.83;;;;;;;;;;5084975;28;20136;-66
2023/08/13 05:42:49;;;;;;;5.97;2.75;;;;;;;;;;5091347;28;20107;-62
2023/08/13 05:45:17;;;;;;;5.07;3.22;;;;;;;;;;5079391;28;20447;-61
2023/08/13 05:47:44;;;;;;;4.47;2.60;;;;;;;;;;5090551;28;20044;-62
2023/08/13 05:50:10;;;;;;;5.65;2.90;;;;;;;;;;5076983;28;20044;-61
2023/08/13 05:52:38;;;;;;;3.15;2.65;;;;;;;;;;5090848;28;20121;-61
2023/08/13 05:55:05;;;;;;;4.47;2.78;;;;;;;;;;5077230;28;20048;-66
2023/08/13 05:57:32;;;;;;;5.05;2.90;;;;;;;;;;5079170;28;20110;-64
2023/08/13 05:59:59;;;;;;;8.38;2.85;;;;;;;;;;5090027;28;20119;-61
2023/08/13 06:02:25;;;;;;;6.00;3.17;;;;;;;;;;5084734;28;20051;-61
2023/08/13 06:04:52;;;;;;;5.85;3.10;;;;;;;;;;5080330;28;20066;-62
2023/08/13 06:07:18;;;;;;;6.53;2.65;;;;;;;;;;5084340;28;20045;-62
2023/08/13 06:09:45;;;;;;;5.35;2.85;;;;;;;;;;5089989;28;20086;-63
2023/08/13 06:12:11;;;;;;;5.35;2.97;;;;;;;;;;5084703;28;20040;-61
2023/08/13 06:14:38;;;;;;;7.00;3.13;;;;;;;;;;5089972;28;20100;-61
2023/08/13 06:17:05;;;;;;;7.97;3.20;;;;;;;;;;5077855;28;20102;-62
2023/08/13 06:19:40;;;;;;;7.13;2.90;;;;;;;;;;5086924;28;20131;-63
2023/08/13 06:22:06;;;;;;;6.55;2.55;;;;;;;;;;5079493;28;20113;-61
2023/08/13 06:24:32;;;;;;;6.65;2.70;;;;;;;;;;5089285;28;20044;-62
2023/08/13 06:26:59;;;;;;;7.88;2.40;;;;;;;;;;5083019;28;20114;-65
2023/08/13 06:29:25;;;;;;;6.78;3.08;;;;;;;;;;5089654;28;20040;-61
2023/08/13 06:31:52;;;;;;;9.40;3.45;;;;;;;;;;5088462;28;20132;-61
2023/08/13 06:34:19;;;;;;;5.90;2.35;;;;;;;;;;5088391;28;20093;-63
2023/08/13 06:36:46;;;;;;;8.35;2.45;;;;;;;;;;5079173;28;20050;-62
2023/08/13 06:39:13;;;;;;;10.60;2.55;;;;;;;;;;5084893;28;20536;-60
2023/08/13 06:41:39;;;;;;;6.35;2.47;;;;;;;;;;5085958;28;20106;-62
2023/08/13 06:44:06;;;;;;;6.72;2.28;;;;;;;;;;5086956;28;20115;-64
2023/08/13 06:49:07;;;;;;;4.70;2.00;;;;;;;;;;5101474;22;20028;-67
2023/08/13 06:51:34;;;;;;;4.25;1.88;;;;;;;;;;5024420;28;20187;-61
2023/08/13 06:54:00;;;;;;;7.15;2.58;;;;;;;;;;5027735;28;20526;-62
2023/08/13 06:56:27;;;;;;;7.07;2.33;;;;;;;;;;5029644;28;20042;-60
2023/08/13 06:58:53;;;;;;;7.10;2.80;;;;;;;;;;5024447;28;20115;-64
2023/08/13 07:01:20;;;;;;;8.52;1.90;;;;;;;;;;5027591;28;20141;-68
2023/08/13 07:03:47;;;;;;;4.80;2.30;;;;;;;;;;5028426;28;20052;-63
2023/08/13 07:06:14;;;;;;;7.07;2.25;;;;;;;;;;5026840;28;20663;-62
2023/08/13 07:08:41;;;;;;;8.18;2.35;;;;;;;;;;5024782;28;20057;-65
2023/08/13 07:11:07;;;;;;;5.32;2.28;;;;;;;;;;5025369;28;20084;-66
2023/08/13 07:13:33;;;;;;;6.97;2.25;;;;;;;;;;5016645;28;20077;-65
2023/08/13 07:16:00;;;;;;;11.93;3.05;;;;;;;;;;5020777;28;20103;-61
2023/08/13 07:18:26;;;;;;;7.50;2.50;;;;;;;;;;5028506;28;20045;-63
2023/08/13 07:20:53;;;;;;;6.28;2.10;;;;;;;;;;5028147;28;20130;-63
2023/08/13 07:23:19;;;;;;;11.48;2.47;;;;;;;;;;5027207;28;20045;-67
2023/08/13 07:25:46;;;;;;;6.10;2.22;;;;;;;;;;5026552;28;20160;-62
2023/08/13 07:28:12;;;;;;;9.07;2.20;;;;;;;;;;5012061;28;20133;-64
2023/08/13 07:30:39;;;;;;;8.73;2.40;;;;;;;;;;5027306;28;20141;-63
2023/08/13 07:33:05;;;;;;;8.18;2.03;;;;;;;;;;5022639;28;20135;-64
2023/08/13 07:35:32;;;;;;;4.20;2.17;;;;;;;;;;5026076;28;20075;-65
2023/08/13 07:37:58;;;;;;;8.15;1.95;;;;;;;;;;5027598;28;20565;-67
2023/08/13 07:40:25;;;;;;;7.68;2.35;;;;;;;;;;5027378;28;20130;-65
2023/08/13 07:42:51;;;;;;;7.00;1.95;;;;;;;;;;5026735;28;20052;-65
2023/08/13 07:45:18;;;;;;;6.68;1.92;;;;;;;;;;5028394;28;20132;-65
2023/08/13 07:47:44;;;;;;;7.63;1.83;;;;;;;;;;5026162;28;20050;-64
2023/08/13 07:50:11;;;;;;;6.47;2.28;;;;;;;;;;5027243;28;20047;-67
2023/08/13 07:52:38;;;;;;;4.70;1.58;;;;;;;;;;5027745;28;20053;-62
2023/08/13 07:55:05;;;;;;;4.35;1.77;;;;;;;;;;5028108;28;20133;-62
2023/08/13 07:57:31;;;;;;;12.35;2.30;;;;;;;;;;5027911;28;20048;-62
2023/08/13 07:59:58;;;;;;;11.15;1.80;;;;;;;;;;5028349;28;20095;-63
2023/08/13 08:02:25;;;;;;;7.78;1.90;;;;;;;;;;5027507;28;20061;-63
2023/08/13 08:04:51;;;;;;;4.40;1.67;;;;;;;;;;5028066;28;20042;-63
2023/08/13 08:07:18;;;;;;;6.22;1.95;;;;;;;;;;5028281;28;20104;-64
2023/08/13 08:09:45;;;;;;;11.30;2.00;;;;;;;;;;5028227;28;20144;-64
2023/08/13 08:12:11;;;;;;;10.13;1.95;;;;;;;;;;5028175;28;20501;-64
2023/08/13 08:14:38;;;;;;;7.05;1.80;;;;;;;;;;5028033;28;20045;-63
2023/08/13 08:17:07;;;;;;;5.95;2.42;;;;;;;;;;5027690;28;20088;-64
2023/08/13 08:19:33;;;;;;;10.05;2.28;;;;;;;;;;5026672;28;20180;-63
2023/08/13 08:21:59;;;;;;;4.45;1.30;;;;;;;;;;5027985;28;20115;-65
2023/08/13 08:24:26;;;;;;;8.15;2.03;;;;;;;;;;5027720;28;20092;-63
2023/08/13 08:26:52;;;;;;;6.60;1.73;;;;;;;;;;5028423;28;20085;-63
2023/08/13 08:29:19;;;;;;;6.15;1.60;;;;;;;;;;5028136;28;20081;-63
2023/08/13 08:31:45;;;;;;;7.00;1.75;;;;;;;;;;5026692;28;20139;-63
2023/08/13 08:34:12;;;;;;;5.63;1.40;;;;;;;;;;5027808;28;20049;-65
2023/08/13 08:36:38;;;;;;;6.57;1.85;;;;;;;;;;5027603;28;20460;-63
2023/08/13 08:39:04;;;;;;;6.07;1.85;;;;;;;;;;5026284;28;20447;-63
2023/08/13 08:41:31;;;;;;;4.30;1.42;;;;;;;;;;5027621;28;20095;-63
2023/08/13 08:43:58;;;;;;;6.85;2.10;;;;;;;;;;5027596;28;20057;-64
2023/08/13 08:46:29;;;;;;;5.90;1.70;;;;;;;;;;5027174;28;20053;-64
2023/08/13 08:48:57;;;;;;;5.57;2.20;;;;;;;;;;5027439;28;20050;-65
2023/08/13 08:51:24;;;;;;;6.55;1.98;;;;;;;;;;5027742;28;20060;-64
2023/08/13 08:53:51;;;;;;;5.13;1.50;;;;;;;;;;5027990;28;20049;-63
2023/08/13 08:56:17;;;;;;;4.97;1.85;;;;;;;;;;5027438;28;20138;-62
2023/08/13 08:58:44;;;;;;;7.63;1.77;;;;;;;;;;5027354;28;20045;-63
2023/08/13 09:01:10;;;;;;;6.15;1.80;;;;;;;;;;5027370;28;20081;-65
2023/08/13 09:03:37;;;;;;;9.70;1.98;;;;;;;;;;5027552;28;20061;-63
2023/08/13 09:06:03;;;;;;;6.22;2.15;;;;;;;;;;5027395;28;20045;-62
2023/08/13 09:08:46;;;;;;;6.32;1.75;;;;;;;;;;5027259;28;20060;-63
2023/08/13 09:11:13;;;;;;;10.90;1.55;;;;;;;;;;5027052;28;20077;-64
2023/08/13 09:13:49;;;;;;;6.13;1.58;;;;;;;;;;5026354;28;20401;-62
2023/08/13 09:16:16;;;;;;;8.32;1.77;;;;;;;;;;5031211;28;20045;-64
2023/08/13 09:18:42;;;;;;;6.50;1.95;;;;;;;;;;5030624;28;20045;-63
2023/08/13 09:21:09;;;;;;;8.95;2.33;;;;;;;;;;5031107;28;20054;-63
2023/08/13 09:23:37;;;;;;;7.32;1.90;;;;;;;;;;5030678;28;20049;-64
2023/08/13 09:26:03;;;;;;;6.18;2.00;;;;;;;;;;5031139;28;20053;-65
2023/08/13 09:28:30;;;;;;;6.35;1.70;;;;;;;;;;5030946;28;20050;-62
2023/08/13 09:30:56;;;;;;;5.28;2.03;;;;;;;;;;5030885;28;20223;-63
2023/08/13 09:33:23;;;;;;;7.28;2.03;;;;;;;;;;5030436;28;20080;-61
2023/08/13 09:35:50;;;;;;;5.82;2.13;;;;;;;;;;5030820;28;20128;-62
2023/08/13 09:38:16;;;;;;;10.52;2.10;;;;;;;;;;5030400;28;20045;-61
2023/08/13 09:40:44;;;;;;;8.40;1.55;;;;;;;;;;5030768;28;20045;-62
2023/08/13 09:43:12;;;;;;;6.88;2.28;;;;;;;;;;5030565;28;20045;-61
2023/08/13 09:45:39;;;;;;;3.35;1.55;;;;;;;;;;5028999;28;20049;-63
2023/08/13 09:48:06;;;;;;;6.45;2.05;;;;;;;;;;5029697;28;20057;-62
2023/08/13 09:50:38;;;;;;;5.13;1.67;;;;;;;;;;5030316;28;20081;-62
2023/08/13 09:53:06;;;;;;;7.68;2.25;;;;;;;;;;5030196;28;20511;-63
2023/08/13 09:55:34;;;;;;;11.07;2.95;;;;;;;;;;5028440;28;20531;-65
2023/08/13 09:58:03;;;;;;;7.35;1.77;;;;;;;;;;5030502;28;20565;-65
2023/08/13 10:00:30;;;;;;;6.43;1.65;;;;;;;;;;5030167;28;20155;-64
2023/08/13 10:02:57;;;;;;;7.20;1.67;;;;;;;;;;5029941;28;20049;-64
2023/08/13 10:05:24;;;;;;;5.78;1.77;;;;;;;;;;5028406;28;20054;-63
2023/08/13 10:07:50;;;;;;;6.97;1.85;;;;;;;;;;5029893;28;20064;-64
2023/08/13 10:10:17;;;;;;;5.82;1.30;;;;;;;;;;5029892;28;20642;-62
2023/08/13 10:12:44;;;;;;;5.22;1.73;;;;;;;;;;5029851;28;20081;-63
2023/08/13 10:15:11;;;;;;;6.10;1.70;;;;;;;;;;5030057;28;20536;-63
2023/08/13 10:17:38;;;;;;;6.82;1.50;;;;;;;;;;5029835;28;20141;-62
2023/08/13 10:20:05;;;;;;;8.98;2.22;;;;;;;;;;5030100;28;20654;-62
2023/08/13 10:22:38;;;;;;;6.20;2.10;;;;;;;;;;5030109;28;20049;-62
2023/08/13 10:25:10;;;;;;;4.53;1.63;;;;;;;;;;5029595;28;20045;-62
2023/08/13 10:27:37;;;;;;;4.85;1.90;;;;;;;;;;5029589;28;20049;-61
2023/08/13 10:30:05;;;;;;;7.82;2.10;;;;;;;;;;5029588;28;20049;-64
2023/08/13 10:32:36;;;;;;;5.20;1.92;;;;;;;;;;5029260;28;20146;-63
2023/08/13 10:35:02;;;;;;;;;;;;;;;;;;5026443;28;20052;-64
2023/08/13 10:37:30;;;;;;;7.47;1.63;;;;;;;;;;5028750;28;20274;-61
2023/08/13 10:39:56;;;;;;;5.32;1.75;;;;;;;;;;5029416;28;20065;-66
2023/08/13 10:42:26;;;;;;;4.82;1.70;;;;;;;;;;5029284;28;20041;-63
2023/08/13 10:45:12;;;;;;;7.00;2.08;;;;;;;;;;5029340;28;20046;-62
2023/08/13 10:47:39;;;;;;;7.65;2.08;;;;;;;;;;5028722;28;20058;-62
2023/08/13 10:50:06;;;;;;;3.10;1.42;;;;;;;;;;5029159;28;20049;-63
2023/08/13 10:52:33;;;;;;;7.63;2.20;;;;;;;;;;5029107;28;20099;-63
2023/08/13 10:55:00;;;;;;;3.38;1.65;;;;;;;;;;5029083;28;20661;-62
2023/08/13 10:57:30;;;;;;;7.45;2.17;;;;;;;;;;5028898;28;20163;-64
2023/08/13 10:59:57;;;;;;;4.07;1.33;;;;;;;;;;5028705;28;20133;-63
2023/08/13 11:02:24;;;;;;;6.40;2.25;;;;;;;;;;5028914;28;20128;-63
2023/08/13 11:04:51;;;;;;;4.53;1.98;;;;;;;;;;5028947;28;20473;-63
2023/08/13 11:07:17;;;;;;;5.10;1.70;;;;;;;;;;5029216;28;20148;-63
2023/08/13 11:09:44;;;;;;;5.20;1.65;;;;;;;;;;5027349;28;20129;-63
2023/08/13 11:12:11;;;;;;;8.05;1.80;;;;;;;;;;5028687;28;20077;-65
2023/08/13 11:14:38;;;;;;;5.60;1.75;;;;;;;;;;5028467;28;20523;-62
2023/08/13 11:17:04;;;;;;;3.97;1.60;;;;;;;;;;5028472;28;20045;-64
2023/08/13 11:19:31;;;;;;;4.63;2.15;;;;;;;;;;5028426;28;20463;-64
2023/08/13 11:21:58;;;;;;;4.95;1.48;;;;;;;;;;5027308;28;20055;-62
2023/08/13 11:24:24;;;;;;;4.05;1.70;;;;;;;;;;5028668;28;20124;-63
2023/08/13 11:26:52;;;;;;;4.95;1.70;;;;;;;;;;5028590;28;20068;-62
2023/08/13 11:29:19;;;;;;;4.97;1.98;;;;;;;;;;5028860;28;20107;-64
2023/08/13 11:31:46;;;;;;;7.03;2.33;;;;;;;;;;5028670;28;20080;-64
2023/08/13 11:34:13;;;;;;;4.32;1.73;;;;;;;;;;5028226;28;20100;-61
2023/08/13 11:36:40;;;;;;;6.25;1.92;;;;;;;;;;5027472;28;20136;-63
2023/08/13 11:39:07;;;;;;;3.63;1.38;;;;;;;;;;5028439;28;20041;-64
2023/08/13 11:41:33;;;;;;;4.50;1.20;;;;;;;;;;5027660;28;20041;-62
2023/08/13 11:44:01;;;;;;;7.32;1.38;;;;;;;;;;5028041;28;20131;-63
2023/08/13 11:46:47;;;;;;;3.65;1.75;;;;;;;;;;5026740;28;20096;-63
2023/08/13 11:49:15;;;;;;;4.35;1.40;;;;;;;;;;5027488;28;20442;-63
2023/08/13 11:51:41;;;;;;;7.68;2.10;;;;;;;;;;5028306;28;20108;-63
2023/08/13 11:54:10;;;;;;;6.50;1.67;;;;;;;;;;5027775;28;20222;-64
2023/08/13 11:56:38;;;;;;;8.67;2.17;;;;;;;;;;5027502;28;20128;-64
2023/08/13 11:59:07;;;;;;;3.38;1.42;;;;;;;;;;5027740;28;20116;-62
2023/08/13 12:01:37;;;;;;;7.47;2.00;;;;;;;;;;5027512;28;20149;-63
2023/08/13 12:04:06;;;;;;;5.40;1.52;;;;;;;;;;5027858;28;20042;-64
2023/08/13 12:06:34;;;;;;;5.15;2.10;;;;;;;;;;5027627;28;20053;-62
2023/08/13 12:09:00;;;;;;;2.58;1.20;;;;;;;;;;5027821;28;20584;-61
2023/08/13 12:11:26;;;;;;;8.60;1.88;;;;;;;;;;5027606;28;20053;-64
2023/08/13 12:13:53;;;;;;;9.20;2.05;;;;;;;;;;5028038;28;20113;-62
2023/08/13 12:16:19;;;;;;;6.30;1.60;;;;;;;;;;5027464;28;20038;-62
2023/08/13 12:18:46;;;;;;;9.50;1.85;;;;;;;;;;5027728;28;20041;-62
2023/08/13 12:21:12;;;;;;;4.28;1.73;;;;;;;;;;5027355;28;20049;-64
2023/08/13 12:23:39;;;;;;;3.25;1.27;;;;;;;;;;5027879;28;20474;-63
2023/08/13 12:26:05;;;;;;;10.25;2.00;;;;;;;;;;5027183;28;20133;-62
2023/08/13 12:28:31;;;;;;;2.80;1.52;;;;;;;;;;5027353;28;20429;-64
2023/08/13 12:30:58;;;;;;;4.18;1.58;;;;;;;;;;5027373;28;20111;-63
2023/08/13 12:33:24;;;;;;;3.30;1.48;;;;;;;;;;5027389;28;20046;-65
2023/08/13 12:35:51;;;;;;;7.80;1.73;;;;;;;;;;5027542;28;20049;-64
2023/08/13 12:38:17;;;;;;;4.95;1.27;;;;;;;;;;5027549;28;20053;-63
2023/08/13 12:40:44;;;;;;;5.38;1.70;;;;;;;;;;5027160;28;20045;-63
2023/08/13 12:43:11;;;;;;;3.97;1.85;;;;;;;;;;5027645;28;20041;-61
2023/08/13 12:45:37;;;;;;;4.45;1.60;;;;;;;;;;5027678;28;20204;-62
2023/08/13 12:48:04;;;;;;;4.05;1.58;;;;;;;;;;5026572;28;20583;-63
2023/08/13 12:50:30;;;;;;;3.78;1.25;;;;;;;;;;5031703;28;20049;-64
2023/08/13 12:52:58;;;;;;;5.05;1.45;;;;;;;;;;5031021;28;20109;-63
2023/08/13 12:55:25;;;;;;;2.75;1.33;;;;;;;;;;5031266;28;20413;-64
2023/08/13 12:57:51;;;;;;;5.30;1.73;;;;;;;;;;5031240;28;20057;-63
2023/08/13 13:00:18;;;;;;;4.60;1.83;;;;;;;;;;5031590;28;20396;-63
2023/08/13 13:02:44;;;;;;;4.28;1.77;;;;;;;;;;5030878;28;20049;-64
2023/08/13 13:05:11;;;;;;;5.38;1.25;;;;;;;;;;5031328;28;20049;-62
2023/08/13 13:07:37;;;;;;;4.88;1.55;;;;;;;;;;5031034;28;20059;-65
2023/08/13 13:10:04;;;;;;;6.25;1.58;;;;;;;;;;5030643;28;20128;-65
2023/08/13 13:12:30;;;;;;;5.70;2.15;;;;;;;;;;5030969;28;20099;-65
2023/08/13 13:14:57;;;;;;;6.68;2.03;;;;;;;;;;5031010;28;20049;-65
2023/08/13 13:17:26;;;;;;;4.95;2.03;;;;;;;;;;5030599;28;20132;-65
2023/08/13 13:19:54;;;;;;;4.30;1.63;;;;;;;;;;5030617;28;20104;-63
2023/08/13 13:22:21;;;;;;;6.22;1.42;;;;;;;;;;5030894;28;20042;-62
2023/08/13 13:24:47;;;;;;;5.10;1.58;;;;;;;;;;5030634;28;20799;-62
2023/08/13 13:27:14;;;;;;;3.42;1.42;;;;;;;;;;5023876;28;20129;-63
2023/08/13 13:29:40;;;;;;;5.65;2.03;;;;;;;;;;5028149;28;20081;-61
2023/08/13 13:32:07;;;;;;;5.28;1.98;;;;;;;;;;5019282;28;20049;-67
2023/08/13 13:34:33;;;;;;;9.15;2.67;;;;;;;;;;5029987;28;20037;-65
2023/08/13 13:37:00;;;;;;;5.88;1.92;;;;;;;;;;5025347;28;20081;-65
2023/08/13 13:39:26;;;;;;;5.07;1.98;;;;;;;;;;5024359;28;20119;-63
2023/08/13 13:41:53;;;;;;;3.53;1.52;;;;;;;;;;5028056;28;20469;-63
2023/08/13 13:44:19;;;;;;;4.00;1.90;;;;;;;;;;5017123;28;20137;-62
2023/08/13 13:46:46;;;;;;;7.13;2.45;;;;;;;;;;5015288;28;20251;-63
2023/08/13 13:49:12;;;;;;;4.38;2.00;;;;;;;;;;5027768;28;20061;-60
2023/08/13 13:51:40;;;;;;;3.85;1.85;;;;;;;;;;5027634;28;20124;-62
2023/08/13 13:54:07;;;;;;;6.95;2.15;;;;;;;;;;5034684;28;20552;-60
2023/08/13 13:56:33;;;;;;;5.70;1.52;;;;;;;;;;5028064;28;20738;-64
2023/08/13 13:59:00;;;;;;;4.15;1.77;;;;;;;;;;5028784;28;20684;-62
2023/08/13 14:01:26;;;;;;;6.03;2.45;;;;;;;;;;5027089;28;20069;-64
2023/08/13 14:03:53;;;;;;;6.13;2.20;;;;;;;;;;5014245;28;20064;-62
2023/08/13 14:06:19;;;;;;;4.82;1.80;;;;;;;;;;5020862;28;20050;-64
2023/08/13 14:08:46;;;;;;;4.03;1.40;;;;;;;;;;5029027;28;20203;-64
2023/08/13 14:11:12;;;;;;;6.82;2.10;;;;;;;;;;5028497;28;20117;-63
2023/08/13 14:13:39;;;;;;;7.63;2.30;;;;;;;;;;5028512;28;20061;-64
2023/08/13 14:16:05;;;;;;;5.50;1.85;;;;;;;;;;5028134;28;20077;-62
2023/08/13 14:18:32;;;;;;;10.25;2.20;;;;;;;;;;5021852;28;20056;-62
2023/08/13 14:20:58;;;;;;;4.72;2.28;;;;;;;;;;5027169;28;20050;-64
2023/08/13 14:23:25;;;;;;;5.55;1.77;;;;;;;;;;5028108;28;20457;-65
2023/08/13 14:25:51;;;;;;;8.07;3.08;;;;;;;;;;5028654;28;20088;-62
2023/08/13 14:28:17;;;;;;;10.18;3.10;;;;;;;;;;5028394;28;20456;-63
2023/08/13 14:30:44;;;;;;;3.88;1.67;;;;;;;;;;5026394;28;20045;-62
2023/08/13 14:33:11;;;;;;;12.63;2.92;;;;;;;;;;5018394;28;20095;-62
2023/08/13 14:35:37;;;;;;;5.50;1.80;;;;;;;;;;5023253;28;20539;-62
2023/08/13 14:38:04;;;;;;;4.18;1.75;;;;;;;;;;5028140;28;20049;-62
2023/08/13 14:40:30;;;;;;;6.15;2.13;;;;;;;;;;5023844;28;20049;-63
2023/08/13 14:42:57;;;;;;;9.05;2.45;;;;;;;;;;5028292;28;20115;-67
2023/08/13 14:45:23;;;;;;;8.32;1.85;;;;;;;;;;5020174;28;20065;-62